createdAt,value
2017-12-03T00:00:45.768Z,81.10
2017-12-03T00:03:13.447Z,81.20
2017-12-03T00:05:41.146Z,81.70
2017-12-03T00:08:08.732Z,81.90
2017-12-03T00:10:36.356Z,81.40
2017-12-03T00:13:03.952Z,81.50
2017-12-03T00:15:31.555Z,81.90
2017-12-03T00:17:59.186Z,81.40
2017-12-03T00:20:26.979Z,82.10
2017-12-03T00:22:54.569Z,81.90
2017-12-03T00:25:23.027Z,82.60
2017-12-03T00:27:50.845Z,82.50
2017-12-03T00:30:18.671Z,82.80
2017-12-03T00:32:46.274Z,82.80
2017-12-03T00:35:13.833Z,82.50
2017-12-03T00:37:41.482Z,82.50
2017-12-03T00:40:09.079Z,82.00
2017-12-03T00:42:36.658Z,82.10
2017-12-03T00:45:04.312Z,82.10
2017-12-03T00:47:31.877Z,82.40
2017-12-03T00:49:59.464Z,82.60
2017-12-03T00:52:27.078Z,82.60
2017-12-03T00:54:54.767Z,82.20
2017-12-03T00:57:23.150Z,82.80
2017-12-03T00:59:50.735Z,82.30
2017-12-03T01:02:18.380Z,82.20
2017-12-03T01:04:46.072Z,82.30
2017-12-03T01:07:13.680Z,82.60
2017-12-03T01:09:42.055Z,83.20
2017-12-03T01:12:09.695Z,83.20
2017-12-03T01:14:37.364Z,83.20
2017-12-03T01:17:04.979Z,83.50
2017-12-03T01:19:33.358Z,84.40
2017-12-03T01:22:01.700Z,84.40
2017-12-03T01:24:29.257Z,84.40
2017-12-03T01:26:56.862Z,84.30
2017-12-03T01:29:24.506Z,84.20
2017-12-03T01:31:52.140Z,84.20
2017-12-03T01:34:19.836Z,84.30
2017-12-03T01:36:47.465Z,84.30
2017-12-03T01:39:15.073Z,84.30
2017-12-03T01:41:43.438Z,84.50
2017-12-03T01:44:11.106Z,84.50
2017-12-03T01:46:38.667Z,84.60
2017-12-03T01:49:07.591Z,84.50
2017-12-03T01:51:35.171Z,84.50
2017-12-03T01:54:02.760Z,84.90
2017-12-03T01:56:30.472Z,84.70
2017-12-03T01:58:58.060Z,84.70
2017-12-03T02:01:25.663Z,84.90
2017-12-03T02:03:53.326Z,85.00
2017-12-03T02:06:20.935Z,84.60
2017-12-03T02:08:48.550Z,84.60
2017-12-03T02:11:16.182Z,84.60
2017-12-03T02:13:43.749Z,85.10
2017-12-03T02:16:11.428Z,85.20
2017-12-03T02:18:39.023Z,85.00
2017-12-03T02:21:06.632Z,84.40
2017-12-03T02:23:34.237Z,83.00
2017-12-03T02:26:02.231Z,84.30
2017-12-03T02:28:29.795Z,82.20
2017-12-03T02:30:57.356Z,81.80
2017-12-03T02:33:25.114Z,81.50
2017-12-03T02:35:52.707Z,80.30
2017-12-03T02:38:20.951Z,79.50
2017-12-03T02:40:48.515Z,79.60
2017-12-03T02:43:16.075Z,79.60
2017-12-03T02:45:43.701Z,79.70
2017-12-03T02:48:11.323Z,79.60
2017-12-03T02:50:39.684Z,80.20
2017-12-03T02:53:08.261Z,80.10
2017-12-03T02:55:35.864Z,80.30
2017-12-03T02:58:04.239Z,80.40
2017-12-03T03:00:31.802Z,80.30
2017-12-03T03:02:59.391Z,80.40
2017-12-03T03:05:26.987Z,79.90
2017-12-03T03:07:54.822Z,80.30
2017-12-03T03:10:22.394Z,80.00
2017-12-03T03:12:50.016Z,80.60
2017-12-03T03:15:18.349Z,80.60
2017-12-03T03:17:45.982Z,80.60
2017-12-03T03:20:14.467Z,79.40
2017-12-03T03:22:42.494Z,80.90
2017-12-03T03:25:10.063Z,79.80
2017-12-03T03:27:37.844Z,79.70
2017-12-03T03:30:06.160Z,80.00
2017-12-03T03:32:33.725Z,80.00
2017-12-03T03:35:01.317Z,80.20
2017-12-03T03:37:28.951Z,82.10
2017-12-03T03:39:56.507Z,82.60
2017-12-03T03:42:24.095Z,81.60
2017-12-03T03:44:51.694Z,82.10
2017-12-03T03:47:19.250Z,82.40
2017-12-03T03:49:46.943Z,82.40
2017-12-03T03:52:14.538Z,82.30
2017-12-03T03:54:42.902Z,82.50
2017-12-03T03:57:10.499Z,82.50
2017-12-03T03:59:38.825Z,82.80
2017-12-03T04:02:06.441Z,82.80
2017-12-03T04:04:34.087Z,81.80
2017-12-03T04:07:01.670Z,80.90
2017-12-03T04:09:29.264Z,81.00
2017-12-03T04:11:56.861Z,80.70
2017-12-03T04:14:24.787Z,80.70
2017-12-03T04:16:52.403Z,80.00
2017-12-03T04:19:20.752Z,80.80
2017-12-03T04:21:48.311Z,80.80
2017-12-03T04:24:15.873Z,79.20
2017-12-03T04:26:43.486Z,78.70
2017-12-03T04:29:11.227Z,78.70
2017-12-03T04:31:38.832Z,79.50
2017-12-03T04:34:06.415Z,78.80
2017-12-03T04:36:33.974Z,79.20
2017-12-03T04:39:02.330Z,79.50
2017-12-03T04:41:29.959Z,79.40
2017-12-03T04:43:58.292Z,78.90
2017-12-03T04:46:25.877Z,78.90
2017-12-03T04:48:53.438Z,79.30
2017-12-03T04:51:21.099Z,80.40
2017-12-03T04:53:48.675Z,80.00
2017-12-03T04:56:16.276Z,79.00
2017-12-03T04:58:44.653Z,79.10
2017-12-03T05:01:12.235Z,79.10
2017-12-03T05:03:39.836Z,80.10
2017-12-03T05:06:07.395Z,79.00
2017-12-03T05:08:35.753Z,79.90
2017-12-03T05:11:03.330Z,79.90
2017-12-03T05:13:31.662Z,79.00
2017-12-03T05:15:59.219Z,79.00
2017-12-03T05:18:26.916Z,79.10
2017-12-03T05:20:54.477Z,79.20
2017-12-03T05:23:22.098Z,79.00
2017-12-03T05:25:49.692Z,78.50
2017-12-03T05:28:18.181Z,78.50
2017-12-03T05:30:45.728Z,78.50
2017-12-03T05:33:13.350Z,78.90
2017-12-03T05:35:41.080Z,78.40
2017-12-03T05:38:09.398Z,78.90
2017-12-03T05:40:36.959Z,78.90
2017-12-03T05:43:04.659Z,77.90
2017-12-03T05:45:32.460Z,78.80
2017-12-03T05:48:00.038Z,78.70
2017-12-03T05:50:27.662Z,79.00
2017-12-03T05:52:55.267Z,78.40
2017-12-03T05:55:22.814Z,78.50
2017-12-03T05:57:51.104Z,78.40
2017-12-03T06:00:18.671Z,77.70
2017-12-03T06:02:46.219Z,77.30
2017-12-03T06:05:13.812Z,78.20
2017-12-03T06:07:41.583Z,78.90
2017-12-03T06:10:09.418Z,78.30
2017-12-03T06:12:37.160Z,78.70
2017-12-03T06:15:04.774Z,78.90
2017-12-03T06:17:32.358Z,78.70
2017-12-03T06:20:00.684Z,80.00
2017-12-03T06:22:28.291Z,79.80
2017-12-03T06:24:55.870Z,79.90
2017-12-03T06:27:23.517Z,79.20
2017-12-03T06:29:51.096Z,79.50
2017-12-03T06:32:18.722Z,80.10
2017-12-03T06:34:46.331Z,79.70
2017-12-03T06:37:14.164Z,79.30
2017-12-03T06:39:41.734Z,79.60
2017-12-03T06:42:09.334Z,79.50
2017-12-03T06:44:36.927Z,80.50
2017-12-03T06:47:04.487Z,80.70
2017-12-03T06:49:32.173Z,79.70
2017-12-03T06:51:59.728Z,80.60
2017-12-03T06:54:27.319Z,79.50
2017-12-03T06:56:55.008Z,79.70
2017-12-03T06:59:22.558Z,79.10
2017-12-03T07:01:50.205Z,80.00
2017-12-03T07:04:18.176Z,79.70
2017-12-03T07:06:45.757Z,79.20
2017-12-03T07:09:13.543Z,79.50
2017-12-03T07:11:41.146Z,80.10
2017-12-03T07:14:08.715Z,79.30
2017-12-03T07:16:36.310Z,79.40
2017-12-03T07:19:03.881Z,79.70
2017-12-03T07:21:31.475Z,79.50
2017-12-03T07:23:59.824Z,79.60
2017-12-03T07:26:27.435Z,79.60
2017-12-03T07:28:55.262Z,79.80
2017-12-03T07:31:22.915Z,80.00
2017-12-03T07:33:51.342Z,79.20
2017-12-03T07:36:18.904Z,79.20
2017-12-03T07:38:46.507Z,78.80
2017-12-03T07:41:14.101Z,78.70
2017-12-03T07:43:41.711Z,78.00
2017-12-03T07:46:09.320Z,78.10
2017-12-03T07:48:37.654Z,77.10
2017-12-03T07:51:05.216Z,77.20
2017-12-03T07:53:32.826Z,76.80
2017-12-03T07:56:01.171Z,76.70
2017-12-03T07:58:28.781Z,76.70
2017-12-03T08:00:56.384Z,76.60
2017-12-03T08:03:23.969Z,75.80
2017-12-03T08:05:51.532Z,75.60
2017-12-03T08:08:19.093Z,75.40
2017-12-03T08:10:47.448Z,76.00
2017-12-03T08:13:15.004Z,76.10
2017-12-03T08:15:42.623Z,75.20
2017-12-03T08:18:10.218Z,75.40
2017-12-03T08:20:37.804Z,76.30
2017-12-03T08:23:06.163Z,75.50
2017-12-03T08:25:33.715Z,75.40
2017-12-03T08:28:01.283Z,75.40
2017-12-03T08:30:28.835Z,76.40
2017-12-03T08:32:56.395Z,75.80
2017-12-03T08:35:24.098Z,76.70
2017-12-03T08:37:51.725Z,75.60
2017-12-03T08:40:19.287Z,76.00
2017-12-03T08:42:46.905Z,75.00
2017-12-03T08:45:14.463Z,74.80
2017-12-03T08:47:42.255Z,74.10
2017-12-03T08:50:09.818Z,73.70
2017-12-03T08:52:37.576Z,75.70
2017-12-03T08:55:05.187Z,73.50
2017-12-03T08:57:32.875Z,74.10
2017-12-03T09:00:00.521Z,72.70
2017-12-03T09:02:28.219Z,73.80
2017-12-03T09:04:55.820Z,72.90
2017-12-03T09:07:23.556Z,72.50
2017-12-03T09:09:51.242Z,71.60
2017-12-03T09:12:18.807Z,72.10
2017-12-03T09:14:46.358Z,72.20
2017-12-03T09:17:13.969Z,72.20
2017-12-03T09:19:41.538Z,74.00
2017-12-03T09:22:09.193Z,74.00
2017-12-03T09:24:36.787Z,72.80
2017-12-03T09:27:04.479Z,72.90
2017-12-03T09:29:32.138Z,72.10
2017-12-03T09:31:59.770Z,72.30
2017-12-03T09:34:27.388Z,70.60
2017-12-03T09:36:54.995Z,73.40
2017-12-03T09:39:22.624Z,72.30
2017-12-03T09:41:51.132Z,70.50
2017-12-03T09:44:18.724Z,69.80
2017-12-03T09:46:46.359Z,69.70
2017-12-03T09:49:13.909Z,69.90
2017-12-03T09:51:42.402Z,72.60
2017-12-03T09:54:10.006Z,69.30
2017-12-03T09:56:38.353Z,71.40
2017-12-03T09:59:05.960Z,71.50
2017-12-03T10:01:33.581Z,69.80
2017-12-03T10:04:01.236Z,70.60
2017-12-03T10:06:28.798Z,70.00
2017-12-03T10:08:56.354Z,70.20
2017-12-03T10:11:24.102Z,67.90
2017-12-03T10:13:51.721Z,69.10
2017-12-03T10:16:20.077Z,68.00
2017-12-03T10:18:47.702Z,68.00
2017-12-03T10:21:15.955Z,66.70
2017-12-03T10:23:43.547Z,66.10
2017-12-03T10:26:11.099Z,66.30
2017-12-03T10:28:39.013Z,63.80
2017-12-03T10:31:06.614Z,63.80
2017-12-03T10:33:34.201Z,62.50
2017-12-03T10:36:01.753Z,63.80
2017-12-03T10:38:29.411Z,62.10
2017-12-03T10:40:56.995Z,62.90
2017-12-03T10:43:24.591Z,67.30
2017-12-03T10:45:52.189Z,67.00
2017-12-03T10:48:20.869Z,63.90
2017-12-03T10:50:48.645Z,63.50
2017-12-03T10:53:16.307Z,66.80
2017-12-03T10:55:44.297Z,62.90
2017-12-03T10:58:12.199Z,62.00
2017-12-03T11:00:39.909Z,63.80
2017-12-03T11:03:08.592Z,65.10
2017-12-03T11:05:36.187Z,62.20
2017-12-03T11:08:03.824Z,61.40
2017-12-03T11:10:31.481Z,62.50
2017-12-03T11:12:59.058Z,61.00
2017-12-03T11:15:26.705Z,64.90
2017-12-03T11:17:54.365Z,60.30
2017-12-03T11:20:22.127Z,59.90
2017-12-03T11:22:49.704Z,61.60
2017-12-03T11:25:17.307Z,61.20
2017-12-03T11:27:45.645Z,60.20
2017-12-03T11:30:13.307Z,60.80
2017-12-03T11:32:41.739Z,61.40
2017-12-03T11:35:09.532Z,61.70
2017-12-03T11:37:37.947Z,62.00
2017-12-03T11:40:05.574Z,63.30
2017-12-03T11:42:33.348Z,64.30
2017-12-03T11:45:01.062Z,61.60
2017-12-03T11:47:29.459Z,64.80
2017-12-03T11:49:57.040Z,64.80
2017-12-03T11:52:24.702Z,61.10
2017-12-03T11:54:52.366Z,65.30
2017-12-03T11:57:20.125Z,63.90
2017-12-03T11:59:47.710Z,65.20
2017-12-03T12:02:16.273Z,61.60
2017-12-03T12:04:43.929Z,62.00
2017-12-03T12:07:11.495Z,62.70
2017-12-03T12:09:39.676Z,64.00
2017-12-03T12:12:07.436Z,62.90
2017-12-03T12:14:35.077Z,62.70
2017-12-03T12:17:02.790Z,62.50
2017-12-03T12:19:32.532Z,65.10
2017-12-03T12:22:00.209Z,62.30
2017-12-03T12:24:27.841Z,65.30
2017-12-03T12:26:55.660Z,62.70
2017-12-03T12:29:24.998Z,62.20
2017-12-03T12:31:53.368Z,64.00
2017-12-03T12:34:22.053Z,64.80
2017-12-03T12:36:49.639Z,61.20
2017-12-03T12:39:17.211Z,60.90
2017-12-03T12:41:45.553Z,64.60
2017-12-03T12:44:13.188Z,64.50
2017-12-03T12:46:40.767Z,65.30
2017-12-03T12:49:08.512Z,63.00
2017-12-03T12:51:36.127Z,64.20
2017-12-03T12:54:04.531Z,64.10
2017-12-03T12:56:34.780Z,64.10
2017-12-03T12:59:02.379Z,63.00
2017-12-03T13:01:30.804Z,64.40
2017-12-03T13:03:58.493Z,65.90
2017-12-03T13:06:26.092Z,63.90
2017-12-03T13:08:53.947Z,63.40
2017-12-03T13:11:21.711Z,65.30
2017-12-03T13:13:49.343Z,65.10
2017-12-03T13:16:16.937Z,65.50
2017-12-03T13:18:44.507Z,66.00
2017-12-03T13:21:12.915Z,64.20
2017-12-03T13:23:40.566Z,64.10
2017-12-03T13:26:08.135Z,64.70
2017-12-03T13:28:36.016Z,66.00
2017-12-03T13:31:03.572Z,64.80
2017-12-03T13:33:31.171Z,69.50
2017-12-03T13:35:58.850Z,65.10
2017-12-03T13:38:27.299Z,65.80
2017-12-03T13:40:54.972Z,65.80
2017-12-03T13:43:22.586Z,65.40
2017-12-03T13:45:50.492Z,66.30
2017-12-03T13:48:18.113Z,66.10
2017-12-03T13:50:45.766Z,64.10
2017-12-03T13:53:13.333Z,65.40
2017-12-03T13:55:41.239Z,67.30
2017-12-03T13:58:08.799Z,65.10
2017-12-03T14:00:36.430Z,66.90
2017-12-03T14:03:04.040Z,65.70
2017-12-03T14:05:31.748Z,66.50
2017-12-03T14:07:59.358Z,65.30
2017-12-03T14:10:26.972Z,68.70
2017-12-03T14:12:54.606Z,67.50
2017-12-03T14:15:23.007Z,69.00
2017-12-03T14:17:50.700Z,69.10
2017-12-03T14:20:18.345Z,67.50
2017-12-03T14:22:46.111Z,69.20
2017-12-03T14:25:13.696Z,69.80
2017-12-03T14:27:41.374Z,68.30
2017-12-03T14:30:09.086Z,68.90
2017-12-03T14:32:36.706Z,69.60
2017-12-03T14:35:04.271Z,70.10
2017-12-03T14:37:32.676Z,68.80
2017-12-03T14:40:01.409Z,70.50
2017-12-03T14:42:29.595Z,70.60
2017-12-03T14:44:57.336Z,69.20
2017-12-03T14:47:24.921Z,70.50
2017-12-03T14:49:52.523Z,69.70
2017-12-03T14:52:20.225Z,70.60
2017-12-03T14:54:47.796Z,70.70
2017-12-03T14:57:15.478Z,71.20
2017-12-03T14:59:43.065Z,69.60
2017-12-03T15:02:11.469Z,71.90
2017-12-03T15:04:39.039Z,73.90
2017-12-03T15:07:06.644Z,73.30
2017-12-03T15:09:35.742Z,75.10
2017-12-03T15:12:03.365Z,75.20
2017-12-03T15:14:30.964Z,74.30
2017-12-03T15:16:58.643Z,73.90
2017-12-03T15:19:26.371Z,73.40
2017-12-03T15:21:54.582Z,74.90
2017-12-03T15:24:23.116Z,75.50
2017-12-03T15:26:50.734Z,75.50
2017-12-03T15:29:18.365Z,75.00
2017-12-03T15:31:46.815Z,77.70
2017-12-03T15:34:14.441Z,77.70
2017-12-03T15:36:42.859Z,77.10
2017-12-03T15:39:10.563Z,77.00
2017-12-03T15:41:38.384Z,77.40
2017-12-03T15:44:05.976Z,76.80
2017-12-03T15:46:33.634Z,77.30
2017-12-03T15:49:01.230Z,79.40
2017-12-03T15:51:29.588Z,76.70
2017-12-03T15:53:57.345Z,76.70
2017-12-03T15:56:25.832Z,78.00
2017-12-03T15:58:53.424Z,78.00
2017-12-03T16:01:21.818Z,78.50
2017-12-03T16:03:49.563Z,78.50
2017-12-03T16:06:17.148Z,78.70
2017-12-03T16:08:44.875Z,76.40
2017-12-03T16:11:12.451Z,78.30
2017-12-03T16:13:40.089Z,78.00
2017-12-03T16:16:07.701Z,77.80
2017-12-03T16:18:35.391Z,76.70
2017-12-03T16:21:02.989Z,75.90
2017-12-03T16:23:30.593Z,77.40
2017-12-03T16:25:58.224Z,76.40
2017-12-03T16:28:25.835Z,75.30
2017-12-03T16:30:53.436Z,75.80
2017-12-03T16:33:21.818Z,76.30
2017-12-03T16:35:49.376Z,76.30
2017-12-03T16:38:17.747Z,75.50
2017-12-03T16:40:46.744Z,74.90
2017-12-03T16:43:15.492Z,74.70
2017-12-03T16:45:43.069Z,74.90
2017-12-03T16:48:10.669Z,75.30
2017-12-03T16:50:38.243Z,75.30
2017-12-03T16:53:05.968Z,74.90
2017-12-03T16:55:34.350Z,73.20
2017-12-03T16:58:01.990Z,75.60
2017-12-03T17:00:30.333Z,74.20
2017-12-03T17:02:57.894Z,74.30
2017-12-03T17:05:25.562Z,74.80
2017-12-03T17:07:53.424Z,75.30
2017-12-03T17:10:22.094Z,75.50
2017-12-03T17:12:49.691Z,76.50
2017-12-03T17:15:17.314Z,77.10
2017-12-03T17:17:44.943Z,78.30
2017-12-03T17:20:12.504Z,79.80
2017-12-03T17:22:41.036Z,77.40
2017-12-03T17:25:08.647Z,77.40
2017-12-03T17:27:36.265Z,77.70
2017-12-03T17:30:03.825Z,77.80
2017-12-03T17:32:36.372Z,77.20
2017-12-03T17:35:03.979Z,76.90
2017-12-03T17:37:31.566Z,76.90
2017-12-03T17:40:00.726Z,76.70
2017-12-03T17:42:28.900Z,76.70
2017-12-03T17:44:56.718Z,77.30
2017-12-03T17:47:24.721Z,78.30
2017-12-03T17:49:52.542Z,78.40
2017-12-03T17:52:20.098Z,77.90
2017-12-03T17:54:48.578Z,78.40
2017-12-03T17:57:16.451Z,78.40
2017-12-03T17:59:44.085Z,78.40
2017-12-03T18:02:11.796Z,78.10
2017-12-03T18:04:39.391Z,78.30
2017-12-03T18:07:06.951Z,78.80
2017-12-03T18:09:35.577Z,77.60
2017-12-03T18:12:03.303Z,77.00
2017-12-03T18:14:30.927Z,76.80
2017-12-03T18:17:00.248Z,76.90
2017-12-03T18:19:27.860Z,76.90
2017-12-03T18:21:55.834Z,77.20
2017-12-03T18:24:23.450Z,76.70
2017-12-03T18:26:51.076Z,77.00
2017-12-03T18:29:19.639Z,77.50
2017-12-03T18:31:47.288Z,77.50
2017-12-03T18:34:14.958Z,77.40
2017-12-03T18:36:42.609Z,77.30
2017-12-03T18:39:10.236Z,77.20
2017-12-03T18:41:37.838Z,78.30
2017-12-03T18:44:06.441Z,77.30
2017-12-03T18:46:34.007Z,77.30
2017-12-03T18:49:01.811Z,77.70
2017-12-03T18:51:29.411Z,77.70
2017-12-03T18:53:57.009Z,77.80
2017-12-03T18:56:24.636Z,77.80
2017-12-03T18:58:52.202Z,77.80
2017-12-03T19:01:19.759Z,78.30
2017-12-03T19:03:48.294Z,77.50
2017-12-03T19:06:16.156Z,77.50
2017-12-03T19:08:43.724Z,77.80
2017-12-03T19:11:11.362Z,77.80
2017-12-03T19:13:38.938Z,77.60
2017-12-03T19:16:06.501Z,79.00
2017-12-03T19:18:34.081Z,78.80
2017-12-03T19:21:01.827Z,78.80
2017-12-03T19:23:29.430Z,79.00
2017-12-03T19:25:57.018Z,79.00
2017-12-03T19:28:25.428Z,79.00
2017-12-03T19:30:53.018Z,79.00
2017-12-03T19:33:20.639Z,79.10
2017-12-03T19:35:48.294Z,79.30
2017-12-03T19:38:16.626Z,79.40
2017-12-03T19:40:44.473Z,79.40
2017-12-03T19:43:12.227Z,79.00
2017-12-03T19:45:39.856Z,79.20
2017-12-03T19:48:07.524Z,79.90
2017-12-03T19:50:35.582Z,80.20
2017-12-03T19:53:03.215Z,79.30
2017-12-03T19:55:31.363Z,79.30
2017-12-03T19:57:59.080Z,79.30
2017-12-03T20:00:26.735Z,79.50
2017-12-03T20:02:54.347Z,79.20
2017-12-03T20:05:22.010Z,79.60
2017-12-03T20:07:49.589Z,80.00
2017-12-03T20:10:17.259Z,80.10
2017-12-03T20:12:44.819Z,79.50
2017-12-03T20:15:12.449Z,79.50
2017-12-03T20:17:40.011Z,79.70
2017-12-03T20:20:07.776Z,79.40
2017-12-03T20:22:35.389Z,78.90
2017-12-03T20:25:02.994Z,79.20
2017-12-03T20:27:30.580Z,79.20
2017-12-03T20:29:58.142Z,79.30
2017-12-03T20:32:25.697Z,79.50
2017-12-03T20:34:53.674Z,79.30
2017-12-03T20:37:21.963Z,79.40
2017-12-03T20:39:49.537Z,79.20
2017-12-03T20:42:17.102Z,79.00
2017-12-03T20:44:44.820Z,79.10
2017-12-03T20:47:12.567Z,79.20
2017-12-03T20:49:40.155Z,79.40
2017-12-03T20:52:07.713Z,78.80
2017-12-03T20:54:35.306Z,79.00
2017-12-03T20:57:02.878Z,79.30
2017-12-03T20:59:30.482Z,79.50
2017-12-03T21:01:58.236Z,79.40
2017-12-03T21:04:25.847Z,79.40
2017-12-03T21:06:53.409Z,79.30
2017-12-03T21:09:20.973Z,79.80
2017-12-03T21:11:48.624Z,79.70
2017-12-03T21:14:16.260Z,79.70
2017-12-03T21:16:43.809Z,79.90
2017-12-03T21:19:11.366Z,79.40
2017-12-03T21:21:39.042Z,79.60
2017-12-03T21:24:06.602Z,79.10
2017-12-03T21:26:34.159Z,79.20
2017-12-03T21:29:01.720Z,79.40
2017-12-03T21:31:29.478Z,79.60
2017-12-03T21:33:57.380Z,79.70
2017-12-03T21:36:24.947Z,79.80
2017-12-03T21:38:52.538Z,80.60
2017-12-03T21:41:20.088Z,79.70
2017-12-03T21:43:48.496Z,79.60
2017-12-03T21:46:16.126Z,79.50
2017-12-03T21:48:43.709Z,79.80
2017-12-03T21:51:11.272Z,79.90
2017-12-03T21:53:38.878Z,80.20
2017-12-03T21:56:07.239Z,80.80
2017-12-03T21:58:35.191Z,80.70
2017-12-03T22:01:02.848Z,80.60
2017-12-03T22:03:30.406Z,80.80
2017-12-03T22:05:58.783Z,80.70
2017-12-03T22:08:27.003Z,82.00
2017-12-03T22:10:55.349Z,81.00
2017-12-03T22:13:23.745Z,81.00
2017-12-03T22:15:51.647Z,80.90
2017-12-03T22:18:19.230Z,80.90
2017-12-03T22:20:46.787Z,81.20
2017-12-03T22:23:14.479Z,81.10
2017-12-03T22:25:42.242Z,81.10
2017-12-03T22:28:10.572Z,80.50
2017-12-03T22:30:38.830Z,80.50
2017-12-03T22:33:07.164Z,80.60
2017-12-03T22:35:35.607Z,80.60
2017-12-03T22:38:03.586Z,80.40
2017-12-03T22:40:32.034Z,80.10
2017-12-03T22:42:59.630Z,80.10
2017-12-03T22:45:27.947Z,80.20
2017-12-03T22:47:55.561Z,80.20
2017-12-03T22:50:23.182Z,80.60
2017-12-03T22:52:51.564Z,80.40
2017-12-03T22:55:19.238Z,80.30
2017-12-03T22:57:46.814Z,80.40
2017-12-03T23:00:15.308Z,80.80
2017-12-03T23:02:43.653Z,80.40
2017-12-03T23:05:12.132Z,80.70
2017-12-03T23:07:39.688Z,80.60
2017-12-03T23:10:08.915Z,80.50
2017-12-03T23:12:37.755Z,80.60
2017-12-03T23:15:05.751Z,80.30
2017-12-03T23:17:33.336Z,80.20
2017-12-03T23:20:01.788Z,80.70
2017-12-03T23:22:29.374Z,80.40
2017-12-03T23:24:56.990Z,80.60
2017-12-03T23:27:24.587Z,79.80
2017-12-03T23:29:52.184Z,80.00
2017-12-03T23:32:19.777Z,80.00
2017-12-03T23:34:47.426Z,80.70
2017-12-03T23:37:15.000Z,80.60
2017-12-03T23:39:42.590Z,80.30
2017-12-03T23:42:10.152Z,80.40
2017-12-03T23:44:37.731Z,80.60
2017-12-03T23:47:05.728Z,80.40
2017-12-03T23:49:33.302Z,80.70
2017-12-03T23:52:00.868Z,80.70
2017-12-03T23:54:28.457Z,80.90
2017-12-03T23:56:56.008Z,80.60
2017-12-03T23:59:23.573Z,80.90
